NCAR-RAP Real-Time Weather Data

Output produced by METARs form (08 May 2021  17:19 UTC)
found at http://weather.rap.ucar.edu/surface/
 
KALB 081651Z COR 18006KT 10SM FEW065 SCT080 OVC250 11/01 A2985 RMK AO2 SLP108 T01110011
KALB 081551Z VRB04KT 10SM SCT060 BKN080 OVC250 11/01 A2986 RMK AO2 SLP113 PRESENT WX VCSH T01110011
KALB 081451Z VRB06KT 10SM FEW048 BKN070 OVC250 11/M01 A2987 RMK AO2 SLP116 PRESENT WX VCSH T01111006 53004
KALB 081351Z COR 11003KT 10SM SCT048 SCT075 BKN090 OVC250 10/00 A2987 RMK AO2 SLP114 T01000000
KALB 081251Z 11003KT 10SM FEW050 BKN090 OVC250 09/01 A2987 RMK AO2 SLP114 T00940011
KALB 081151Z COR 11003KT 10SM FEW080 BKN090 OVC250 08/02 A2986 RMK AO2 SLP112 PRESENT WX VCSH T00830017 10100 20072 53011
KALB 081051Z 10003KT 10SM BKN090 OVC250 07/02 A2984 RMK AO2 SLP106 T00720022
KALB 080951Z 11003KT 10SM SCT047 BKN065 BKN095 07/01 A2983 RMK AO2 SLP100 T00720011
KALB 080851Z 00000KT 10SM SCT070 BKN080 08/02 A2983 RMK AO2 SLP101 T00780017 56009
KALB 080751Z 17005KT 10SM SCT065 SCT080 08/01 A2983 RMK AO2 SLP102 T00830011
KALB 080651Z 15007KT 10SM FEW042 BKN075 OVC090 09/03 A2985 RMK AO2 SLP109 T00940028
KALB 080551Z 15007G15KT 10SM BKN070 BKN090 10/03 A2986 RMK AO2 SLP110 T01000033 10133 20100 55002
KALB 080451Z 16005KT 10SM BKN075 10/03 A2985 RMK AO2 SLP109 T01000033 401670000
KALB 080351Z 16005KT 10SM BKN110 10/03 A2986 RMK AO2 SLP111 T01000033
KALB 080251Z 13008KT 10SM OVC120 11/03 A2986 RMK AO2 SLP113 T01110033 50005
KALB 080151Z 13007KT 10SM BKN120 OVC250 12/03 A2986 RMK AO2 SLP113 T01170033
KALB 080051Z 12007KT 10SM BKN080 BKN120 OVC250 12/02 A2985 RMK AO2 SLP109 T01220022
KALB 072351Z 12008KT 10SM BKN100 OVC250 13/02 A2985 RMK AO2 SLP109 T01330022 10167 20133 53006
KALB 072251Z 14009KT 10SM BKN085 BKN110 OVC250 14/01 A2983 RMK AO2 SLP104 T01440011
KALB 072151Z 13006KT 10SM BKN100 BKN250 15/M01 A2983 RMK AO2 SLP104 T01501006
KALB 072051Z 13005KT 10SM BKN085 BKN250 16/M01 A2983 RMK AO2 SLP103 T01561006 56016
KALB 071951Z 08008KT 10SM BKN090 BKN250 16/M01 A2984 RMK AO2 SLP105 T01561011
KALB 071851Z 17005KT 10SM BKN075 BKN250 16/M01 A2985 RMK AO2 SLP111 T01561006
KALB 071751Z 21007KT 130V260 10SM SCT080 SCT120 BKN250 16/02 A2988 RMK AO2 SLP117 T01610017 10161 20056 58025
KALB 071651Z VRB03KT 10SM FEW070 FEW130 BKN250 15/01 A2990 RMK AO2 SLP127 T01500006
KALB 071551Z VRB03KT 10SM FEW060 FEW120 BKN250 14/00 A2993 RMK AO2 SLP136 T01390000
KALB 071451Z 27003KT 10SM FEW055 FEW120 BKN250 12/01 A2995 RMK AO2 SLP143 T01220006 58009
KALB 071351Z VRB03KT 10SM FEW120 FEW250 11/01 A2996 RMK AO2 SLP147 T01110011
KALB 071251Z 34003KT 10SM FEW120 FEW250 09/02 A2998 RMK AO2 SLP152 T00890017
KALB 071151Z 32005KT 10SM FEW200 SCT250 06/02 A2998 RMK AO2 SLP153 T00610017 10061 20000 58000
KALB 071051Z 00000KT 10SM SCT250 02/02 A2999 RMK AO2 SLP155 T00220017
KALB 070951Z 00000KT 10SM FEW250 01/01 A2999 RMK AO2 SLP155 T00110006
KALB 070851Z 00000KT 10SM CLR 01/00 A2998 RMK AO2 SLP154 T00110000 55001
KALB 070751Z 00000KT 10SM CLR 02/01 A2997 RMK AO2 SLP151 T00220006
KALB 070651Z 00000KT 10SM SCT250 03/00 A2997 RMK AO2 SLP151 T00330000
KALB 070551Z 00000KT 10SM BKN250 04/00 A2998 RMK AO2 SLP155 T00440000 10111 20044 50000
KALB 070451Z 00000KT 10SM BKN250 06/M01 A3000 RMK AO2 SLP158 T00611011 401500050
KALB 070351Z 00000KT 10SM FEW200 BKN250 07/M01 A3000 RMK AO2 SLP159 T00721011
KALB 070251Z 33004KT 10SM BKN210 08/M01 A2998 RMK AO2 SLP155 T00831011 51017
KALB 070151Z 31009KT 10SM FEW250 09/M02 A2997 RMK AO2 SLP149 T00891017
KALB 070051Z 28012KT 10SM FEW065 BKN150 BKN250 10/M02 A2995 RMK AO2 SLP145 T01001017
KALB 062351Z 27013KT 10SM FEW036 SCT200 SCT250 11/M02 A2993 RMK AO2 SLP138 T01111017 10150 20106 53012
KALB 062251Z 27016G20KT 10SM SCT036 SCT065 SCT210 12/M03 A2992 RMK AO2 SLP132 T01221028
KALB 062151Z 26016KT 10SM FEW036 SCT060 SCT250 14/M02 A2991 RMK AO2 SLP129 T01391022
KALB 062051Z 26012KT 10SM FEW040 SCT060 SCT250 14/M01 A2990 RMK AO2 SLP125 T01441011 56010
KALB 061951Z 28011KT 260V320 10SM SCT060 SCT250 14/01 A2990 RMK AO2 SLP125 T01440006
KALB 061851Z 30012KT 10SM FEW060 FEW250 14/01 A2991 RMK AO2 SLP129 T01390011
KALB 061751Z 27010G22KT 10SM FEW055 FEW250 13/02 A2993 RMK AO2 SLP136 T01280017 10133 20078 58009